Time;durP1;ratioP1;P1;durP2;ratioP2;P2;SDS_P1;SDS_P2;PMS_P1;PMS_P2;Temp;Humidity;BMP_temperature;BMP_pressure;BME280_temperature;BME280_humidity;BME280_pressure;Samples;Min_cycle;Max_cycle;Signal;HPM_P1;HPM_P2
2021/06/29 00:00:42;;;;;;;9.23;4.15;;;17.80;86.00;;;;;;4992359;28;20089;-80
2021/06/29 00:03:08;;;;;;;7.88;3.78;;;17.80;86.20;;;;;;4991031;28;20038;-79
2021/06/29 00:05:37;;;;;;;7.63;4.35;;;17.80;86.90;;;;;;4991163;28;20030;-79
2021/06/29 00:08:04;;;;;;;10.35;6.07;;;17.80;86.50;;;;;;5007621;28;20026;-81
2021/06/29 00:10:30;;;;;;;12.65;5.60;;;17.80;86.20;;;;;;5007401;28;20030;-79
2021/06/29 00:12:57;;;;;;;9.75;5.38;;;17.70;86.00;;;;;;4990853;28;20052;-80
2021/06/29 00:15:24;;;;;;;9.45;5.47;;;17.70;85.90;;;;;;4990949;28;20026;-79
2021/06/29 00:17:51;;;;;;;15.27;5.80;;;17.70;85.90;;;;;;5007146;28;20566;-80
2021/06/29 00:20:17;;;;;;;11.98;5.43;;;17.70;85.80;;;;;;4990964;28;20031;-80
2021/06/29 00:22:43;;;;;;;15.02;5.70;;;17.70;85.80;;;;;;4990727;28;20401;-79
2021/06/29 00:25:11;;;;;;;13.45;5.43;;;17.60;85.70;;;;;;4990811;28;20125;-79
2021/06/29 00:27:37;;;;;;;9.50;5.10;;;17.60;85.80;;;;;;5023500;28;20034;-79
2021/06/29 00:30:04;;;;;;;10.55;5.75;;;17.70;85.80;;;;;;5007202;28;20122;-80
2021/06/29 00:32:30;;;;;;;11.38;5.43;;;17.70;85.50;;;;;;4990646;28;20194;-79
2021/06/29 00:34:55;;;;;;;8.60;4.95;;;17.80;85.40;;;;;;4990173;28;20035;-78
2021/06/29 00:37:21;;;;;;;10.07;5.25;;;17.80;85.30;;;;;;5006719;28;20238;-80
2021/06/29 00:39:46;;;;;;;11.07;5.32;;;17.80;85.20;;;;;;4990623;28;20473;-80
2021/06/29 00:42:12;;;;;;;8.13;5.57;;;17.80;85.20;;;;;;4990571;28;20027;-80
2021/06/29 00:44:38;;;;;;;12.23;5.32;;;17.80;85.30;;;;;;4990645;28;20500;-80
2021/06/29 00:47:09;;;;;;;10.55;5.53;;;17.70;85.20;;;;;;5006910;28;20029;-79
2021/06/29 00:49:35;;;;;;;15.63;7.15;;;17.70;85.20;;;;;;5006847;28;20039;-80
2021/06/29 00:52:01;;;;;;;13.50;7.03;;;17.60;85.10;;;;;;4990494;28;20478;-80
2021/06/29 00:54:27;;;;;;;14.90;6.03;;;17.60;85.30;;;;;;5023307;28;20062;-79
2021/06/29 00:56:52;;;;;;;12.40;6.03;;;17.50;85.40;;;;;;4991692;28;20525;-79
2021/06/29 00:59:18;;;;;;;9.60;6.07;;;17.40;85.50;;;;;;4990744;28;20081;-81
2021/06/29 01:01:44;;;;;;;14.93;6.82;;;17.40;85.60;;;;;;4990383;28;20432;-80
2021/06/29 01:04:09;;;;;;;10.85;6.75;;;17.40;85.80;;;;;;4990438;28;20081;-79
2021/06/29 01:06:37;;;;;;;16.02;8.07;;;17.40;85.60;;;;;;4990426;28;20033;-78
2021/06/29 01:09:04;;;;;;;10.60;6.30;;;17.40;85.50;;;;;;4990390;28;20026;-80
2021/06/29 01:11:30;;;;;;;15.35;7.75;;;17.30;85.40;;;;;;4989989;28;20520;-81
2021/06/29 01:13:56;;;;;;;18.67;7.28;;;17.30;85.50;;;;;;5006737;28;20393;-80
2021/06/29 01:16:21;;;;;;;14.93;7.00;;;17.20;85.60;;;;;;5022930;28;20242;-79
2021/06/29 01:18:47;;;;;;;9.38;6.45;;;17.10;85.90;;;;;;4990408;28;20030;-80
2021/06/29 01:21:16;;;;;;;11.27;7.15;;;17.10;86.10;;;;;;4990097;28;20034;-80
2021/06/29 01:23:48;;;;;;;11.23;6.68;;;17.10;86.30;;;;;;5006498;28;20162;-79
2021/06/29 01:26:20;;;;;;;11.55;8.00;;;17.00;86.20;;;;;;5006428;28;20108;-79
2021/06/29 01:29:05;;;;;;;14.57;7.13;;;17.00;86.10;;;;;;5006500;28;20076;-80
2021/06/29 01:31:33;;;;;;;15.23;7.40;;;16.90;86.00;;;;;;5006798;28;20076;-79
2021/06/29 01:33:59;;;;;;;12.93;8.63;;;16.90;86.00;;;;;;4991844;28;20350;-79
2021/06/29 01:36:36;;;;;;;13.82;8.05;;;16.80;86.00;;;;;;4990212;28;20030;-79
2021/06/29 01:39:04;;;;;;;13.30;7.45;;;16.70;86.20;;;;;;4991428;28;20487;-80
2021/06/29 01:41:30;;;;;;;14.00;8.35;;;16.70;86.30;;;;;;5006328;28;20034;-80
2021/06/29 01:43:59;;;;;;;13.63;8.00;;;16.70;86.40;;;;;;5022859;28;20053;-80
2021/06/29 01:46:29;;;;;;;12.57;8.20;;;16.70;86.50;;;;;;4990940;28;20045;-79
2021/06/29 01:48:55;;;;;;;13.70;8.73;;;16.70;86.60;;;;;;5010443;28;20224;-81
2021/06/29 01:51:22;;;;;;;14.32;9.18;;;16.70;86.50;;;;;;4994766;28;20358;-78
2021/06/29 01:53:49;;;;;;;18.02;9.55;;;16.80;86.30;;;;;;4994774;28;20019;-80
2021/06/29 01:56:16;;;;;;;15.27;9.65;;;16.70;86.10;;;;;;4993517;28;20030;-80
2021/06/29 01:58:52;;;;;;;12.32;9.65;;;16.50;86.00;;;;;;4993562;28;20034;-79
2021/06/29 02:01:19;;;;;;;16.70;9.68;;;16.40;86.40;;;;;;5009612;28;20038;-80
2021/06/29 02:03:44;;;;;;;15.95;10.48;;;16.30;86.60;;;;;;4993348;28;20485;-81
2021/06/29 02:06:10;;;;;;;12.73;9.40;;;16.20;87.00;;;;;;4994646;28;20038;-79
2021/06/29 02:08:37;;;;;;;18.10;9.15;;;16.10;87.30;;;;;;5009565;28;20372;-80
2021/06/29 02:11:03;;;;;;;15.15;9.75;;;16.10;87.40;;;;;;5009408;28;20028;-80
2021/06/29 02:13:29;;;;;;;20.77;9.73;;;16.00;87.50;;;;;;4993491;28;20380;-78
2021/06/29 02:15:55;;;;;;;15.50;9.05;;;15.90;87.60;;;;;;4993225;28;20034;-80
2021/06/29 02:18:22;;;;;;;16.42;9.80;;;15.80;87.70;;;;;;5009251;28;20061;-79
2021/06/29 02:20:49;;;;;;;14.90;9.63;;;15.70;87.90;;;;;;4994240;28;20467;-80
2021/06/29 02:23:15;;;;;;;16.20;9.93;;;15.60;88.10;;;;;;4992982;28;20038;-79
2021/06/29 02:25:41;;;;;;;16.40;9.70;;;15.50;88.30;;;;;;4993039;28;20417;-79
2021/06/29 02:28:07;;;;;;;15.23;9.75;;;15.40;88.50;;;;;;4994175;28;20025;-79
2021/06/29 02:30:33;;;;;;;19.90;9.82;;;15.30;88.80;;;;;;5009193;28;20113;-79
2021/06/29 02:32:59;;;;;;;21.38;14.00;;;15.20;89.10;;;;;;4994158;28;20023;-78
2021/06/29 02:35:25;;;;;;;17.02;10.63;;;15.10;89.40;;;;;;5009032;28;20503;-79
2021/06/29 02:37:50;;;;;;;37.50;26.73;;;15.10;89.70;;;;;;5025450;28;20033;-79
2021/06/29 02:40:16;;;;;;;16.70;11.23;;;15.00;89.80;;;;;;4992713;28;20393;-81
2021/06/29 02:42:42;;;;;;;17.80;10.52;;;14.90;89.90;;;;;;5008959;28;20040;-79
2021/06/29 02:45:08;;;;;;;18.73;10.70;;;14.90;90.00;;;;;;4992539;28;20034;-80
2021/06/29 02:47:36;;;;;;;18.05;11.10;;;14.90;90.20;;;;;;4992378;28;20030;-79
2021/06/29 02:50:04;;;;;;;18.75;10.45;;;14.90;90.40;;;;;;5025065;28;20034;-80
2021/06/29 02:52:30;;;;;;;20.30;11.23;;;15.00;90.40;;;;;;4992248;28;20080;-81
2021/06/29 02:54:55;;;;;;;16.75;10.95;;;15.00;90.40;;;;;;5025137;28;20448;-79
2021/06/29 02:57:21;;;;;;;17.98;10.15;;;15.20;90.50;;;;;;5008718;28;20593;-79
2021/06/29 02:59:47;;;;;;;22.45;10.70;;;15.20;90.40;;;;;;4992805;28;20042;-79
2021/06/29 03:02:12;;;;;;;17.85;10.63;;;15.30;90.30;;;;;;5025169;28;20038;-80
2021/06/29 03:04:38;;;;;;;18.75;10.10;;;15.30;90.30;;;;;;4992193;28;20042;-80
2021/06/29 03:07:04;;;;;;;19.05;10.48;;;15.40;90.30;;;;;;5008485;28;20027;-79
2021/06/29 03:09:30;;;;;;;16.08;9.70;;;15.40;90.20;;;;;;5008368;28;20054;-81
2021/06/29 03:11:55;;;;;;;23.85;11.13;;;15.40;90.20;;;;;;4991929;28;20136;-80
2021/06/29 03:14:21;;;;;;;21.05;10.30;;;15.40;90.10;;;;;;5008330;28;20383;-79
2021/06/29 03:16:47;;;;;;;14.32;9.35;;;15.40;90.10;;;;;;5008375;28;20026;-78
2021/06/29 03:19:13;;;;;;;22.88;10.52;;;15.40;90.20;;;;;;4992023;28;20444;-80
2021/06/29 03:21:38;;;;;;;14.55;9.45;;;15.40;90.10;;;;;;5008059;28;20026;-81
2021/06/29 03:24:04;;;;;;;13.70;10.73;;;15.40;90.10;;;;;;4991873;28;20056;-78
2021/06/29 03:26:30;;;;;;;20.75;10.75;;;15.50;90.10;;;;;;4991697;28;20089;-79
2021/06/29 03:28:56;;;;;;;15.55;9.55;;;15.50;90.00;;;;;;5008067;28;20432;-80
2021/06/29 03:31:22;;;;;;;18.95;10.10;;;15.50;90.20;;;;;;4991634;28;20539;-80
2021/06/29 03:33:47;;;;;;;15.73;9.48;;;15.50;90.00;;;;;;5024556;28;20026;-80
2021/06/29 03:36:13;;;;;;;14.63;9.60;;;15.50;90.00;;;;;;4991852;28;20545;-79
2021/06/29 03:38:39;;;;;;;15.52;10.65;;;15.50;90.00;;;;;;4991645;28;20034;-79
2021/06/29 03:41:05;;;;;;;15.57;9.73;;;15.60;90.00;;;;;;5024358;28;20094;-79
2021/06/29 03:43:34;;;;;;;18.08;9.52;;;15.70;89.90;;;;;;4991609;28;20062;-81
2021/06/29 03:46:00;;;;;;;15.35;9.10;;;15.70;89.70;;;;;;4991656;28;20109;-79
2021/06/29 03:48:26;;;;;;;20.70;10.52;;;15.70;89.50;;;;;;4991404;28;20388;-78
2021/06/29 03:50:52;;;;;;;18.58;9.23;;;15.70;89.40;;;;;;4992676;28;20101;-80
2021/06/29 03:53:17;;;;;;;20.38;10.23;;;15.60;89.30;;;;;;4991267;28;20425;-79
2021/06/29 03:55:43;;;;;;;16.83;8.27;;;15.60;89.20;;;;;;5007447;28;20027;-81
2021/06/29 03:58:09;;;;;;;20.02;8.38;;;15.50;89.20;;;;;;5023858;28;20042;-79
2021/06/29 04:00:34;;;;;;;17.67;7.75;;;15.40;89.40;;;;;;4991118;28;20517;-78
2021/06/29 04:03:00;;;;;;;17.77;8.68;;;15.40;89.50;;;;;;4991061;28;20030;-80
2021/06/29 04:05:26;;;;;;;21.73;9.05;;;15.30;89.60;;;;;;4992615;28;20073;-80
2021/06/29 04:07:52;;;;;;;23.05;10.10;;;15.40;89.60;;;;;;4991174;28;20081;-80
2021/06/29 04:10:17;;;;;;;15.45;8.48;;;15.40;89.40;;;;;;4992339;28;20030;-79
2021/06/29 04:12:43;;;;;;;19.77;9.35;;;15.40;89.40;;;;;;4992012;28;20045;-80
2021/06/29 04:15:10;;;;;;;18.00;8.52;;;15.30;89.50;;;;;;5023676;28;20057;-80
2021/06/29 04:17:36;;;;;;;20.33;7.88;;;15.30;89.40;;;;;;4990887;28;20439;-79
2021/06/29 04:20:06;;;;;;;16.42;7.60;;;15.30;89.40;;;;;;4990928;28;20041;-79
2021/06/29 04:22:32;;;;;;;22.83;8.32;;;15.40;89.40;;;;;;5006946;28;20061;-81
2021/06/29 04:24:57;;;;;;;17.63;7.63;;;15.40;89.20;;;;;;4990633;28;20065;-80
2021/06/29 04:27:23;;;;;;;14.98;7.05;;;15.40;89.20;;;;;;4990795;28;20050;-79
2021/06/29 04:29:52;;;;;;;16.70;8.73;;;15.40;89.00;;;;;;5006923;28;20030;-80
2021/06/29 04:32:18;;;;;;;14.40;7.53;;;15.40;89.30;;;;;;5007098;28;20018;-81
2021/06/29 04:34:43;;;;;;;13.00;7.50;;;15.40;89.00;;;;;;4990662;28;20027;-80
2021/06/29 04:37:09;;;;;;;18.65;7.45;;;15.50;88.90;;;;;;4990415;28;20046;-79
2021/06/29 04:39:35;;;;;;;17.00;6.97;;;15.50;88.90;;;;;;4991872;28;20109;-80
2021/06/29 04:42:00;;;;;;;15.10;7.28;;;15.50;88.70;;;;;;5006754;28;20042;-79
2021/06/29 04:44:26;;;;;;;19.23;7.90;;;15.50;88.40;;;;;;4990262;28;20030;-79
2021/06/29 04:46:52;;;;;;;19.45;7.43;;;15.40;88.50;;;;;;4991756;28;20122;-80
2021/06/29 04:49:22;;;;;;;17.85;7.38;;;15.40;88.40;;;;;;5006702;28;20026;-79
2021/06/29 04:51:47;;;;;;;15.57;7.65;;;15.40;88.50;;;;;;5006677;28;20076;-78
2021/06/29 04:54:13;;;;;;;20.75;7.45;;;15.40;88.40;;;;;;4990423;28;20467;-79
2021/06/29 04:56:39;;;;;;;14.07;6.55;;;15.40;88.50;;;;;;4990542;28;20042;-80
2021/06/29 04:59:04;;;;;;;18.30;6.82;;;15.40;88.40;;;;;;4990581;28;20385;-79
2021/06/29 05:01:30;;;;;;;17.10;7.45;;;15.40;88.30;;;;;;4990478;28;20038;-79
2021/06/29 05:03:56;;;;;;;17.98;7.57;;;15.40;88.30;;;;;;4990394;28;20441;-78
2021/06/29 05:06:22;;;;;;;16.52;6.88;;;15.40;88.20;;;;;;4990358;28;20448;-79
2021/06/29 05:08:48;;;;;;;18.52;7.53;;;15.40;88.10;;;;;;4991719;28;20417;-78
2021/06/29 05:11:14;;;;;;;20.40;7.13;;;15.40;87.90;;;;;;4991263;28;20026;-79
2021/06/29 05:13:40;;;;;;;17.08;7.40;;;15.40;88.10;;;;;;4991597;28;20564;-79
2021/06/29 05:16:06;;;;;;;17.98;6.65;;;15.40;88.30;;;;;;4990258;28;20109;-79
2021/06/29 05:18:32;;;;;;;18.98;7.35;;;15.40;88.40;;;;;;4991425;28;20114;-79
2021/06/29 05:20:57;;;;;;;21.88;7.47;;;15.50;88.50;;;;;;4991434;28;20041;-78
2021/06/29 05:23:23;;;;;;;19.58;8.32;;;15.60;88.30;;;;;;4993827;28;20041;-80
2021/06/29 05:25:49;;;;;;;19.20;8.20;;;15.60;88.50;;;;;;5010079;28;20042;-80
2021/06/29 05:28:23;;;;;;;18.17;7.57;;;15.70;88.00;;;;;;5010148;28;20026;-78
2021/06/29 05:30:49;;;;;;;16.58;6.90;;;15.80;87.90;;;;;;5010374;28;20109;-79
2021/06/29 05:33:15;;;;;;;21.50;6.68;;;15.90;87.70;;;;;;5009983;28;20117;-80
2021/06/29 05:35:41;;;;;;;21.52;7.95;;;16.00;87.40;;;;;;4994093;28;20400;-78
2021/06/29 05:38:07;;;;;;;19.23;6.57;;;16.00;87.10;;;;;;4993819;28;20030;-78
2021/06/29 05:40:34;;;;;;;18.95;7.47;;;16.00;87.10;;;;;;5009954;28;20038;-78
2021/06/29 05:43:00;;;;;;;17.02;6.85;;;16.00;87.10;;;;;;4993619;28;20037;-79
2021/06/29 05:45:26;;;;;;;17.75;7.18;;;16.10;87.10;;;;;;4993609;28;20034;-79
2021/06/29 05:47:52;;;;;;;15.88;7.93;;;16.10;87.10;;;;;;4993713;28;20026;-79
2021/06/29 05:50:18;;;;;;;22.05;7.55;;;16.20;87.00;;;;;;4993704;28;20062;-79
2021/06/29 05:52:45;;;;;;;18.95;7.28;;;16.30;86.80;;;;;;4993696;28;20065;-78
2021/06/29 05:55:12;;;;;;;19.85;7.32;;;16.30;86.60;;;;;;4994445;28;20022;-78
2021/06/29 05:57:38;;;;;;;18.52;7.25;;;16.30;86.10;;;;;;4994728;28;20507;-79
2021/06/29 06:00:13;;;;;;;19.58;6.95;;;16.40;86.00;;;;;;4993501;28;20044;-79
2021/06/29 06:02:39;;;;;;;14.48;6.20;;;16.50;85.80;;;;;;5009602;28;20023;-78
2021/06/29 06:05:06;;;;;;;16.38;6.63;;;16.50;85.40;;;;;;5009437;28;20511;-78
2021/06/29 06:07:32;;;;;;;17.02;6.90;;;16.50;85.40;;;;;;4993089;28;20031;-77
2021/06/29 06:09:58;;;;;;;14.95;7.10;;;16.40;85.40;;;;;;4993204;28;20385;-79
2021/06/29 06:12:23;;;;;;;21.38;7.22;;;16.40;85.40;;;;;;5025661;28;20046;-79
2021/06/29 06:14:49;;;;;;;15.90;6.45;;;16.40;85.40;;;;;;4993308;28;20041;-78
2021/06/29 06:17:15;;;;;;;15.52;6.60;;;16.40;85.40;;;;;;4993008;28;20035;-79
2021/06/29 06:19:41;;;;;;;19.17;7.63;;;16.50;85.40;;;;;;5009099;28;20480;-78
2021/06/29 06:22:06;;;;;;;25.10;7.72;;;16.50;85.00;;;;;;4992716;28;20026;-79
2021/06/29 06:24:32;;;;;;;16.48;6.30;;;16.50;84.80;;;;;;4992682;28;20380;-79
2021/06/29 06:26:58;;;;;;;13.55;5.65;;;16.60;84.70;;;;;;4992788;28;20097;-78
2021/06/29 06:29:23;;;;;;;16.75;5.95;;;16.60;85.00;;;;;;4977039;28;20186;-78
2021/06/29 06:31:49;;;;;;;21.77;6.72;;;16.60;84.40;;;;;;4992691;28;20085;-77
2021/06/29 06:34:15;;;;;;;24.00;6.57;;;16.70;84.30;;;;;;4991632;28;20034;-79
2021/06/29 06:36:41;;;;;;;16.80;7.28;;;16.70;84.40;;;;;;4992702;28;20031;-79
2021/06/29 06:39:06;;;;;;;17.52;6.50;;;16.80;84.30;;;;;;4992739;28;20036;-78
2021/06/29 06:41:32;;;;;;;17.85;6.53;;;17.00;83.80;;;;;;5008933;28;20563;-77
2021/06/29 06:43:58;;;;;;;19.40;5.50;;;17.10;83.20;;;;;;4992559;28;20493;-80
2021/06/29 06:46:24;;;;;;;19.00;6.13;;;17.10;82.70;;;;;;4992367;28;20038;-79
2021/06/29 06:48:50;;;;;;;16.48;5.97;;;17.10;82.50;;;;;;4993603;28;20492;-79
2021/06/29 06:51:17;;;;;;;22.88;6.60;;;17.10;82.50;;;;;;4992348;28;20424;-78
2021/06/29 06:53:43;;;;;;;18.23;5.68;;;17.20;82.40;;;;;;4992342;28;20145;-77
2021/06/29 06:56:14;;;;;;;15.98;5.72;;;17.50;82.40;;;;;;4992244;28;20121;-80
2021/06/29 06:58:43;;;;;;;15.77;6.18;;;17.90;81.70;;;;;;4992020;28;20026;-78
2021/06/29 07:01:10;;;;;;;18.42;5.65;;;18.20;80.90;;;;;;5008072;28;20034;-78
2021/06/29 07:03:37;;;;;;;17.13;4.88;;;18.60;80.40;;;;;;5008263;28;20026;-77
2021/06/29 07:06:04;;;;;;;16.48;4.55;;;18.80;79.10;;;;;;5008331;28;20026;-77
2021/06/29 07:08:29;;;;;;;21.38;6.18;;;19.20;79.70;;;;;;4992033;28;20038;-79
2021/06/29 07:10:57;;;;;;;13.05;5.57;;;20.50;79.00;;;;;;4991590;28;20168;-78
2021/06/29 07:13:23;;;;;;;12.43;5.95;;;21.40;75.80;;;;;;4993193;28;20133;-76
2021/06/29 07:15:48;;;;;;;15.68;5.10;;;22.10;73.70;;;;;;5024595;28;20030;-77
2021/06/29 07:18:15;;;;;;;17.55;4.95;;;22.40;72.00;;;;;;5008352;28;20045;-78
2021/06/29 07:20:42;;;;;;;19.70;6.15;;;22.70;70.40;;;;;;4993408;28;20026;-78
2021/06/29 07:23:08;;;;;;;15.75;4.85;;;22.60;68.80;;;;;;5007924;28;20054;-78
2021/06/29 07:25:33;;;;;;;17.33;5.07;;;22.30;68.40;;;;;;5007583;28;20503;-80
2021/06/29 07:27:59;;;;;;;18.00;4.20;;;22.00;67.80;;;;;;4991885;28;20022;-78
2021/06/29 07:30:25;;;;;;;17.20;6.43;;;21.60;68.00;;;;;;4991262;28;20536;-78
2021/06/29 07:32:53;;;;;;;17.20;4.57;;;21.50;68.20;;;;;;5007958;28;20088;-78
2021/06/29 07:35:21;;;;;;;9.88;4.75;;;21.40;68.00;;;;;;4991599;28;20034;-78
2021/06/29 07:37:47;;;;;;;15.68;4.97;;;21.30;67.90;;;;;;5007813;28;20077;-79
2021/06/29 07:40:12;;;;;;;10.05;4.25;;;21.30;67.90;;;;;;5008067;28;20432;-79
2021/06/29 07:42:38;;;;;;;14.73;5.38;;;21.20;67.90;;;;;;5007582;28;20473;-78
2021/06/29 07:45:06;;;;;;;16.40;4.72;;;21.00;67.70;;;;;;4990834;28;20030;-79
2021/06/29 07:47:32;;;;;;;16.63;4.80;;;21.00;68.00;;;;;;5007651;28;20393;-78
2021/06/29 07:49:58;;;;;;;13.10;4.35;;;21.00;68.20;;;;;;5007345;28;20018;-80
2021/06/29 07:52:24;;;;;;;11.07;4.38;;;21.30;68.10;;;;;;4991810;28;20026;-79
2021/06/29 07:54:50;;;;;;;15.48;4.78;;;21.60;67.80;;;;;;4990958;28;20469;-80
2021/06/29 07:57:16;;;;;;;15.93;4.43;;;22.00;67.10;;;;;;5023667;28;20060;-79
2021/06/29 07:59:42;;;;;;;14.25;5.05;;;22.10;66.20;;;;;;4990586;28;20462;-78
2021/06/29 08:02:08;;;;;;;10.45;4.05;;;22.40;66.70;;;;;;4990273;28;20054;-78
2021/06/29 08:04:33;;;;;;;15.30;5.68;;;23.60;66.30;;;;;;5007208;28;20481;-78
2021/06/29 08:06:59;;;;;;;24.20;5.43;;;24.20;64.10;;;;;;5023512;28;20034;-78
2021/06/29 08:09:25;;;;;;;15.23;4.55;;;24.70;63.60;;;;;;4993869;28;20032;-80
2021/06/29 08:11:51;;;;;;;12.00;4.65;;;25.50;63.10;;;;;;5001847;28;20045;-79
2021/06/29 08:14:17;;;;;;;8.93;3.60;;;26.80;62.60;;;;;;5047665;28;20084;-79
2021/06/29 08:16:45;;;;;;;35.45;9.93;;;28.10;59.80;;;;;;5037661;28;20037;-72
2021/06/29 08:19:11;;;;;;;12.93;4.00;;;29.20;57.70;;;;;;5007993;28;20052;-75
2021/06/29 08:21:37;;;;;;;16.02;4.13;;;30.40;55.80;;;;;;4997865;28;20027;-78
2021/06/29 08:24:03;;;;;;;14.07;4.57;;;31.10;54.20;;;;;;5035248;28;20037;-79
2021/06/29 08:26:29;;;;;;;13.40;3.97;;;31.80;52.70;;;;;;5009122;28;20060;-80
2021/06/29 08:28:54;;;;;;;7.75;3.40;;;32.40;51.60;;;;;;5030815;28;20034;-81
2021/06/29 08:31:21;;;;;;;8.55;3.60;;;32.60;50.50;;;;;;5007590;28;20029;-80
2021/06/29 08:33:48;;;;;;;9.98;4.00;;;33.10;50.20;;;;;;5007790;28;20022;-80
2021/06/29 08:36:17;;;;;;;11.50;4.30;;;33.90;49.40;;;;;;5008910;28;20018;-79
2021/06/29 08:38:43;;;;;;;8.75;3.28;;;34.50;47.90;;;;;;5006716;28;20032;-80
2021/06/29 08:41:10;;;;;;;9.88;3.42;;;34.70;47.00;;;;;;5047911;28;20030;-78
2021/06/29 08:43:36;;;;;;;10.40;3.67;;;35.00;46.50;;;;;;5009310;28;20092;-80
2021/06/29 08:46:02;;;;;;;10.40;4.07;;;35.10;45.60;;;;;;5032061;28;20029;-79
2021/06/29 08:48:28;;;;;;;10.85;3.63;;;35.30;45.10;;;;;;5007576;28;20389;-80
2021/06/29 08:50:53;;;;;;;9.93;3.30;;;35.60;44.90;;;;;;5007796;28;20025;-79
2021/06/29 08:53:19;;;;;;;12.48;3.20;;;35.80;44.80;;;;;;5008708;28;20026;-78
2021/06/29 08:55:48;;;;;;;9.68;4.05;;;36.10;44.60;;;;;;5023628;28;20034;-80
2021/06/29 08:58:17;;;;;;;;;;;36.50;44.10;;;;;;5044030;28;20052;-79
2021/06/29 09:00:43;;;;;;;9.98;3.38;;;36.90;45.60;;;;;;5026160;28;19906;-78
2021/06/29 09:03:09;;;;;;;10.02;3.67;;;36.80;44.30;;;;;;5038430;28;20025;-79
2021/06/29 09:05:35;;;;;;;8.95;3.53;;;36.50;43.50;;;;;;5003697;28;20036;-79
2021/06/29 09:08:03;;;;;;;11.20;3.30;;;36.60;43.40;;;;;;5043210;28;20030;-79
2021/06/29 09:10:30;;;;;;;10.20;4.03;;;36.80;42.30;;;;;;5042730;28;20388;-79
2021/06/29 09:12:57;;;;;;;11.07;3.20;;;36.70;42.30;;;;;;5010676;28;20056;-79
2021/06/29 09:15:42;;;;;;;8.10;3.88;;;36.80;42.60;;;;;;5012748;28;20061;-78
2021/06/29 09:18:13;;;;;;;13.05;4.15;;;37.10;42.60;;;;;;5011746;28;20413;-78
2021/06/29 09:20:40;;;;;;;10.55;3.72;;;37.80;42.70;;;;;;5011851;28;20472;-80
2021/06/29 09:23:13;;;;;;;12.73;3.75;;;38.20;41.50;;;;;;5010374;28;20057;-79
2021/06/29 09:25:47;;;;;;;9.63;3.45;;;38.10;41.20;;;;;;5011939;28;20058;-79
2021/06/29 09:28:25;;;;;;;12.88;4.55;;;38.20;41.40;;;;;;5009896;28;20025;-80
2021/06/29 09:31:14;;;;;;;10.35;3.83;;;38.30;40.70;;;;;;5011127;28;20196;-79
2021/06/29 09:33:42;;;;;;;13.07;4.38;;;37.90;40.40;;;;;;5012749;28;20030;-78
2021/06/29 09:36:14;;;;;;;10.70;3.40;;;37.30;40.90;;;;;;5010953;28;20072;-79
2021/06/29 09:38:43;;;;;;;8.30;3.17;;;37.00;41.10;;;;;;5010964;28;20053;-78
2021/06/29 09:41:14;;;;;;;9.18;3.00;;;37.00;41.00;;;;;;5024131;28;20473;-79
2021/06/29 09:43:43;;;;;;;9.48;3.50;;;37.00;41.60;;;;;;5009673;28;20040;-78
2021/06/29 09:46:11;;;;;;;8.45;3.47;;;37.40;41.20;;;;;;5010909;28;20113;-79
2021/06/29 09:48:46;;;;;;;9.43;4.05;;;38.10;41.10;;;;;;5027125;28;20033;-79
2021/06/29 09:51:17;;;;;;;7.38;3.50;;;38.50;40.50;;;;;;5012491;28;20048;-81
2021/06/29 09:53:43;;;;;;;8.25;3.40;;;38.20;40.30;;;;;;5011817;28;20073;-78
2021/06/29 09:56:23;;;;;;;7.63;2.92;;;38.30;40.50;;;;;;5004083;28;20030;-79
2021/06/29 09:58:57;;;;;;;6.63;3.47;;;38.70;39.90;;;;;;5038656;28;20022;-77
2021/06/29 10:01:31;;;;;;;8.15;2.88;;;39.10;39.80;;;;;;5012277;28;20014;-79
2021/06/29 10:04:01;;;;;;;6.78;3.00;;;39.00;39.30;;;;;;5027331;28;20022;-82
2021/06/29 10:06:32;;;;;;;7.13;3.05;;;38.50;39.20;;;;;;5012123;28;20026;-80
2021/06/29 10:09:24;;;;;;;10.65;3.92;;;38.30;39.60;;;;;;5022919;28;20033;-80
2021/06/29 10:11:53;;;;;;;5.78;3.50;;;38.50;39.50;;;;;;5007675;28;20077;-83
2021/06/29 10:14:21;;;;;;;12.02;4.00;;;38.40;39.90;;;;;;5012095;28;20030;-80
2021/06/29 10:16:49;;;;;;;8.75;2.88;;;38.80;39.50;;;;;;5010378;28;20057;-81
2021/06/29 10:19:25;;;;;;;7.15;3.10;;;39.10;39.20;;;;;;5010535;28;20030;-80
2021/06/29 10:21:53;;;;;;;6.90;3.10;;;39.50;39.00;;;;;;5006675;28;20097;-82
2021/06/29 10:24:24;;;;;;;6.60;2.42;;;39.90;38.70;;;;;;5012209;28;20037;-79
2021/06/29 10:26:52;;;;;;;5.80;2.83;;;40.10;38.50;;;;;;5011654;28;20442;-82
2021/06/29 10:29:20;;;;;;;10.93;3.30;;;40.40;38.40;;;;;;5010684;28;20045;-79
2021/06/29 10:31:49;;;;;;;9.60;3.33;;;40.80;38.50;;;;;;5010625;28;20277;-81
2021/06/29 10:34:16;;;;;;;9.55;3.53;;;41.30;38.40;;;;;;5011522;28;20038;-78
2021/06/29 10:36:48;;;;;;;8.18;2.97;;;41.40;38.00;;;;;;5011827;28;20083;-81
2021/06/29 10:39:16;;;;;;;7.95;3.30;;;41.10;37.80;;;;;;5010102;28;20127;-81
2021/06/29 10:42:06;;;;;;;6.50;3.85;;;40.90;37.70;;;;;;5012177;28;20342;-77
2021/06/29 10:44:43;;;;;;;7.20;3.08;;;40.60;37.80;;;;;;5008895;28;20164;-77
2021/06/29 10:47:19;;;;;;;8.35;2.67;;;40.50;37.80;;;;;;5012787;28;20026;-78
2021/06/29 10:49:46;;;;;;;9.73;2.97;;;40.50;37.70;;;;;;5009737;28;20113;-79
2021/06/29 10:52:28;;;;;;;8.05;3.67;;;40.40;37.80;;;;;;5034545;28;20029;-79
2021/06/29 10:55:00;;;;;;;11.88;3.80;;;40.60;37.80;;;;;;5040497;28;20033;-81
2021/06/29 10:57:36;;;;;;;6.43;3.00;;;40.90;37.60;;;;;;5011606;28;20361;-80
2021/06/29 11:00:23;;;;;;;14.52;3.83;;;41.20;37.40;;;;;;5011721;28;20018;-78
2021/06/29 11:03:08;;;;;;;6.38;3.00;;;41.50;37.50;;;;;;5009189;28;20026;-78
2021/06/29 11:05:37;;;;;;;11.65;3.67;;;41.70;37.20;;;;;;5010818;28;20041;-79
2021/06/29 11:08:10;;;;;;;8.45;2.80;;;41.50;37.00;;;;;;5010645;28;20113;-78
2021/06/29 11:10:39;;;;;;;6.63;3.05;;;41.20;36.80;;;;;;5010723;28;20105;-79
2021/06/29 11:13:05;;;;;;;;;;;41.30;37.10;;;;;;5010019;28;20492;-79
2021/06/29 11:15:49;;;;;;;12.90;3.92;;;41.30;37.80;;;;;;5009591;28;19913;-81
2021/06/29 11:18:17;;;;;;;4.55;2.78;;;41.10;37.20;;;;;;5009508;28;20034;-81
2021/06/29 11:20:46;;;;;;;8.93;3.03;;;40.80;37.10;;;;;;5010033;28;20026;-79
2021/06/29 11:23:28;;;;;;;7.47;2.78;;;40.30;37.10;;;;;;5010396;28;20018;-81
2021/06/29 11:26:14;;;;;;;8.07;3.70;;;40.20;37.10;;;;;;5010391;28;20022;-80
2021/06/29 11:28:44;;;;;;;11.55;3.63;;;40.20;37.10;;;;;;5010977;28;20037;-82
2021/06/29 11:31:22;;;;;;;8.18;2.72;;;40.00;37.50;;;;;;5010243;28;20181;-80
2021/06/29 11:33:51;;;;;;;8.85;2.85;;;40.00;37.20;;;;;;5020310;28;20481;-80
2021/06/29 11:36:26;;;;;;;;;;;40.20;37.00;;;;;;5009003;28;20061;-80
2021/06/29 11:38:59;;;;;;;11.23;3.00;;;40.30;37.50;;;;;;4997606;28;19913;-79
2021/06/29 11:41:25;;;;;;;9.68;3.70;;;40.30;37.10;;;;;;5001607;28;20029;-82
2021/06/29 11:43:52;;;;;;;8.98;3.15;;;40.10;36.90;;;;;;5030257;28;20513;-80
2021/06/29 11:46:54;;;;;;;8.73;3.38;;;39.80;37.20;;;;;;5012942;28;20026;-80
2021/06/29 11:49:30;;;;;;;11.18;3.00;;;39.40;37.40;;;;;;5029141;28;20022;-80
2021/06/29 11:52:15;;;;;;;19.38;7.07;;;39.40;37.60;;;;;;5008089;28;20044;-80
2021/06/29 11:54:50;;;;;;;6.57;3.10;;;39.50;37.20;;;;;;5030207;28;20022;-81
2021/06/29 11:57:23;;;;;;;10.07;3.47;;;39.70;37.40;;;;;;4998509;28;20385;-76
2021/06/29 11:59:52;;;;;;;8.77;3.28;;;39.80;37.20;;;;;;5007507;28;20049;-77
2021/06/29 12:02:29;;;;;;;7.95;3.22;;;39.80;36.90;;;;;;5008800;28;20109;-78
2021/06/29 12:05:07;;;;;;;7.97;2.55;;;39.30;36.60;;;;;;5008832;28;20472;-77
2021/06/29 12:07:51;;;;;;;7.97;3.20;;;38.70;37.10;;;;;;5010247;28;20116;-78
2021/06/29 12:10:25;;;;;;;8.70;3.00;;;38.40;37.50;;;;;;5010019;28;20037;-79
2021/06/29 12:12:54;;;;;;;6.63;3.25;;;38.50;37.60;;;;;;5009357;28;20164;-78
2021/06/29 12:15:26;;;;;;;8.93;3.13;;;38.70;37.40;;;;;;5009634;28;20492;-78
2021/06/29 12:17:57;;;;;;;6.65;2.67;;;39.00;37.40;;;;;;5009443;28;20668;-78
2021/06/29 12:20:26;;;;;;;5.53;3.25;;;39.20;37.30;;;;;;5009610;28;20030;-77
2021/06/29 12:22:52;;;;;;;11.13;3.28;;;39.00;37.10;;;;;;5008848;28;20022;-78
2021/06/29 12:25:25;;;;;;;6.93;2.67;;;38.70;37.20;;;;;;5007945;28;20502;-78
2021/06/29 12:27:58;;;;;;;6.93;2.85;;;38.40;37.40;;;;;;5008876;28;20035;-79
2021/06/29 12:30:26;;;;;;;5.90;3.13;;;38.40;37.40;;;;;;5009005;28;20028;-78
2021/06/29 12:32:52;;;;;;;8.98;3.10;;;38.30;37.50;;;;;;5009366;28;20022;-79
2021/06/29 12:35:19;;;;;;;8.18;3.20;;;38.50;37.50;;;;;;5008061;28;20491;-80
2021/06/29 12:37:53;;;;;;;8.27;2.70;;;38.60;37.40;;;;;;5028908;28;20030;-77
2021/06/29 12:40:19;;;;;;;10.95;2.95;;;38.70;37.40;;;;;;5029153;28;20097;-77
2021/06/29 12:42:45;;;;;;;5.85;2.67;;;38.70;37.40;;;;;;4991041;28;20113;-77
2021/06/29 12:45:12;;;;;;;6.95;3.13;;;38.60;37.40;;;;;;4999923;28;20034;-81